createdAt,value
2023-01-26T00:02:10.052Z,34.47
2023-01-26T00:04:40.960Z,33.40
2023-01-26T00:07:11.935Z,33.00
2023-01-26T00:09:42.639Z,32.63
2023-01-26T00:12:17.095Z,31.10
2023-01-26T00:14:56.890Z,34.20
2023-01-26T00:17:38.383Z,32.88
2023-01-26T00:20:13.368Z,33.10
2023-01-26T00:22:47.520Z,31.25
2023-01-26T00:25:21.043Z,32.28
2023-01-26T00:27:51.896Z,31.55
2023-01-26T00:30:25.250Z,32.25
2023-01-26T00:32:59.464Z,31.77
2023-01-26T00:35:33.060Z,31.60
2023-01-26T00:38:11.144Z,31.60
2023-01-26T00:40:42.118Z,32.75
2023-01-26T00:43:15.528Z,32.88
2023-01-26T00:45:48.876Z,33.70
2023-01-26T00:48:19.771Z,32.40
2023-01-26T00:50:56.805Z,32.28
2023-01-26T00:53:30.033Z,33.63
2023-01-26T00:56:00.768Z,34.00
2023-01-26T00:58:32.859Z,33.03
2023-01-26T01:01:06.462Z,33.85
2023-01-26T01:03:37.299Z,33.05
2023-01-26T01:06:08.372Z,35.15
2023-01-26T01:08:39.286Z,37.03
2023-01-26T01:11:11.380Z,35.85
2023-01-26T01:13:42.811Z,34.75
2023-01-26T01:16:18.080Z,35.03
2023-01-26T01:18:48.964Z,35.03
2023-01-26T01:21:20.643Z,33.10
2023-01-26T01:23:51.818Z,34.88
2023-01-26T01:26:22.713Z,36.05
2023-01-26T01:28:56.549Z,33.60
2023-01-26T01:31:30.607Z,35.88
2023-01-26T01:34:01.442Z,32.78
2023-01-26T01:36:32.203Z,37.20
2023-01-26T01:39:02.998Z,34.50
2023-01-26T01:41:33.695Z,34.40
2023-01-26T01:44:21.217Z,33.22
2023-01-26T01:46:57.686Z,32.63
2023-01-26T01:49:32.130Z,33.63
2023-01-26T01:52:09.625Z,32.03
2023-01-26T01:54:44.475Z,33.75
2023-01-26T01:57:27.738Z,32.22
2023-01-26T02:00:03.653Z,32.38
2023-01-26T02:02:37.663Z,31.17
2023-01-26T02:05:16.295Z,30.33
2023-01-26T02:07:48.200Z,32.00
2023-01-26T02:10:23.531Z,32.00
2023-01-26T02:13:01.198Z,30.00
2023-01-26T02:15:32.838Z,29.80
2023-01-26T02:18:11.423Z,30.48
2023-01-26T02:20:48.179Z,32.50
2023-01-26T02:23:29.279Z,30.67
2023-01-26T02:26:11.875Z,29.40
2023-01-26T02:28:43.453Z,27.88
2023-01-26T02:31:15.530Z,28.02
2023-01-26T02:33:47.195Z,28.48
2023-01-26T02:36:22.618Z,30.00
2023-01-26T02:39:06.962Z,30.35
2023-01-26T02:41:53.110Z,27.52
2023-01-26T02:44:24.137Z,29.13
2023-01-26T02:46:56.398Z,29.30
2023-01-26T02:49:39.720Z,30.05
2023-01-26T02:52:11.079Z,27.88
2023-01-26T02:54:54.427Z,29.45
2023-01-26T02:57:27.812Z,29.23
2023-01-26T02:59:58.724Z,29.40
2023-01-26T03:02:29.976Z,32.03
2023-01-26T03:05:00.668Z,32.17
2023-01-26T03:07:31.586Z,32.83
2023-01-26T03:10:02.298Z,33.22
2023-01-26T03:12:35.933Z,34.10
2023-01-26T03:15:20.221Z,33.78
2023-01-26T03:17:50.936Z,33.67
2023-01-26T03:20:34.455Z,32.55
2023-01-26T03:23:17.800Z,31.08
2023-01-26T03:26:01.384Z,32.97
2023-01-26T03:28:34.814Z,32.78
2023-01-26T03:31:09.985Z,33.63
2023-01-26T03:33:40.777Z,32.75
2023-01-26T03:36:11.651Z,32.45
2023-01-26T03:38:42.380Z,32.33
2023-01-26T03:41:25.651Z,31.10
2023-01-26T03:44:14.216Z,34.03
2023-01-26T03:46:57.523Z,30.27
2023-01-26T03:49:40.970Z,29.30
2023-01-26T03:52:27.217Z,29.52
2023-01-26T03:55:10.791Z,29.55
2023-01-26T03:57:41.562Z,30.80
2023-01-26T04:00:17.575Z,30.83
2023-01-26T04:03:02.777Z,30.20
2023-01-26T04:05:46.278Z,28.90
2023-01-26T04:08:27.163Z,28.55
2023-01-26T04:10:58.248Z,29.85
2023-01-26T04:13:41.467Z,29.33
2023-01-26T04:16:29.464Z,31.42
2023-01-26T04:19:12.809Z,30.42
2023-01-26T04:21:43.881Z,29.13
2023-01-26T04:24:16.939Z,30.17
2023-01-26T04:26:48.106Z,29.48
2023-01-26T04:29:19.603Z,31.92
2023-01-26T04:31:52.972Z,33.10
2023-01-26T04:34:24.397Z,30.95
2023-01-26T04:36:58.005Z,28.73
2023-01-26T04:39:28.788Z,29.48
2023-01-26T04:41:59.679Z,28.15
2023-01-26T04:44:30.404Z,29.58
2023-01-26T04:47:03.780Z,30.00
2023-01-26T04:49:34.546Z,31.88
2023-01-26T04:52:05.284Z,31.27
2023-01-26T04:54:36.067Z,32.38
2023-01-26T04:57:07.250Z,32.42
2023-01-26T04:59:37.937Z,31.80
2023-01-26T05:02:13.098Z,35.05
2023-01-26T05:04:43.790Z,33.35
2023-01-26T05:07:14.477Z,35.45
2023-01-26T05:09:45.187Z,34.40
2023-01-26T05:12:28.403Z,34.63
2023-01-26T05:14:59.190Z,33.80
2023-01-26T05:17:32.566Z,33.72
2023-01-26T05:20:03.230Z,31.55
2023-01-26T05:22:33.945Z,32.03
2023-01-26T05:25:04.632Z,35.50
2023-01-26T05:27:35.393Z,34.70
2023-01-26T05:30:11.432Z,34.33
2023-01-26T05:32:46.180Z,34.85
2023-01-26T05:35:17.103Z,35.45
2023-01-26T05:37:48.811Z,34.55
2023-01-26T05:40:19.959Z,35.38
2023-01-26T05:43:08.906Z,38.20
2023-01-26T05:49:06.004Z,37.75
2023-01-26T05:51:39.836Z,38.03
2023-01-26T05:54:11.801Z,38.03
2023-01-26T05:56:42.529Z,41.35
2023-01-26T05:59:13.633Z,40.88
2023-01-26T06:01:44.859Z,38.53
2023-01-26T06:04:20.596Z,38.72
2023-01-26T06:06:51.694Z,39.00
2023-01-26T06:09:22.665Z,39.78
2023-01-26T06:11:53.924Z,38.22
2023-01-26T06:14:27.506Z,40.38
2023-01-26T06:16:58.245Z,39.45
2023-01-26T06:19:31.656Z,36.53
2023-01-26T06:22:05.255Z,37.80
2023-01-26T06:24:36.884Z,37.45
2023-01-26T06:27:12.381Z,38.78
2023-01-26T06:29:43.402Z,37.63
2023-01-26T06:32:14.215Z,36.10
2023-01-26T06:34:47.521Z,35.22
2023-01-26T06:37:18.331Z,31.73
2023-01-26T06:39:49.047Z,34.33
2023-01-26T06:42:21.020Z,34.38
2023-01-26T06:44:51.813Z,33.33
2023-01-26T06:47:22.533Z,31.98
2023-01-26T06:49:55.891Z,32.78
2023-01-26T06:52:30.886Z,33.35
2023-01-26T06:55:03.192Z,32.20
2023-01-26T06:57:33.921Z,33.03
2023-01-26T07:00:09.355Z,31.15
2023-01-26T07:02:40.390Z,30.95
2023-01-26T07:05:13.786Z,31.10
2023-01-26T07:07:44.521Z,30.40
2023-01-26T07:10:15.448Z,29.33
2023-01-26T07:12:48.057Z,31.27
2023-01-26T07:15:19.134Z,29.42
2023-01-26T07:17:49.928Z,28.02
2023-01-26T07:20:23.501Z,29.73
2023-01-26T07:22:54.544Z,27.30
2023-01-26T07:25:25.239Z,28.92
2023-01-26T07:27:58.949Z,28.42
2023-01-26T07:30:30.007Z,27.58
2023-01-26T07:33:02.419Z,27.88
2023-01-26T07:35:35.731Z,29.05
2023-01-26T07:38:06.919Z,27.10
2023-01-26T07:40:37.745Z,28.63
2023-01-26T07:43:08.487Z,28.08
2023-01-26T07:45:41.597Z,26.90
2023-01-26T07:48:12.286Z,27.77
2023-01-26T07:50:49.615Z,26.60
2023-01-26T07:53:23.232Z,25.20
2023-01-26T07:55:56.910Z,25.70
2023-01-26T07:58:27.659Z,26.08
2023-01-26T08:00:58.483Z,25.30
2023-01-26T08:03:29.366Z,25.15
2023-01-26T08:06:05.317Z,26.48
2023-01-26T08:08:37.749Z,25.13
2023-01-26T08:11:08.644Z,27.00
2023-01-26T08:13:39.638Z,25.88
2023-01-26T08:16:15.484Z,24.10
2023-01-26T08:18:48.019Z,25.60
2023-01-26T08:21:22.266Z,24.50
2023-01-26T08:23:53.676Z,24.05
2023-01-26T08:26:24.788Z,26.00
2023-01-26T08:29:01.390Z,24.77
2023-01-26T08:31:33.495Z,24.90
2023-01-26T08:34:04.425Z,24.75
2023-01-26T08:36:37.692Z,25.73
2023-01-26T08:39:08.465Z,25.38
2023-01-26T08:41:40.042Z,24.73
2023-01-26T08:44:13.678Z,24.95
2023-01-26T08:46:46.369Z,24.52
2023-01-26T08:49:17.248Z,24.75
2023-01-26T08:51:50.670Z,24.17
2023-01-26T08:54:24.190Z,24.20
2023-01-26T08:56:55.380Z,26.48
2023-01-26T08:59:26.241Z,24.17
2023-01-26T09:01:57.750Z,24.70
2023-01-26T09:04:28.857Z,22.25
2023-01-26T09:07:02.259Z,24.38
2023-01-26T09:09:32.939Z,25.05
2023-01-26T09:12:04.565Z,25.23
2023-01-26T09:14:47.590Z,24.80
2023-01-26T09:17:20.338Z,25.52
2023-01-26T09:19:51.151Z,25.67
2023-01-26T09:22:24.413Z,25.98
2023-01-26T09:24:55.277Z,23.75
2023-01-26T09:27:26.289Z,26.10
2023-01-26T09:29:57.290Z,25.15
2023-01-26T09:32:28.112Z,25.00
2023-01-26T09:34:58.868Z,26.38
2023-01-26T09:37:32.315Z,27.42
2023-01-26T09:40:03.098Z,26.98
2023-01-26T09:42:42.358Z,26.83
2023-01-26T09:45:26.946Z,26.25
2023-01-26T09:48:25.137Z,25.42
2023-01-26T09:51:00.747Z,25.58
2023-01-26T09:53:44.074Z,26.60
2023-01-26T09:56:20.263Z,27.02
2023-01-26T09:58:56.257Z,27.13
2023-01-26T10:01:33.359Z,25.25
2023-01-26T10:04:08.690Z,26.10
2023-01-26T10:06:41.243Z,25.80
2023-01-26T10:09:21.412Z,24.10
2023-01-26T10:11:56.703Z,27.23
2023-01-26T10:14:34.437Z,24.70
2023-01-26T10:17:10.028Z,25.70
2023-01-26T10:19:45.050Z,25.73
2023-01-26T10:22:19.446Z,25.10
2023-01-26T10:24:54.537Z,23.75
2023-01-26T10:27:26.088Z,24.95
2023-01-26T10:29:56.914Z,25.13
2023-01-26T10:32:28.024Z,23.90
2023-01-26T10:34:59.184Z,24.00
2023-01-26T10:37:32.358Z,24.17
2023-01-26T10:40:09.656Z,24.30
2023-01-26T10:42:41.553Z,23.70
2023-01-26T10:45:29.179Z,22.25
2023-01-26T10:48:12.885Z,23.00
2023-01-26T10:50:46.375Z,21.80
2023-01-26T10:53:25.469Z,23.55
2023-01-26T10:56:07.456Z,23.80
2023-01-26T10:58:52.311Z,22.95
2023-01-26T11:01:27.838Z,21.35
2023-01-26T11:04:08.772Z,21.92
2023-01-26T11:06:39.774Z,22.73
2023-01-26T11:09:20.519Z,23.00
2023-01-26T11:12:05.912Z,21.48
2023-01-26T11:14:38.901Z,19.95
2023-01-26T11:17:24.188Z,19.10
2023-01-26T11:20:10.154Z,18.67
2023-01-26T11:22:51.646Z,19.30
2023-01-26T11:25:30.009Z,20.17
2023-01-26T11:28:17.303Z,17.70
2023-01-26T11:31:13.246Z,18.38
2023-01-26T11:33:54.756Z,17.60
2023-01-26T11:36:38.409Z,17.55
2023-01-26T11:39:21.469Z,19.40
2023-01-26T11:42:10.619Z,19.05
2023-01-26T11:45:19.392Z,17.20
2023-01-26T11:48:04.899Z,16.73
2023-01-26T11:50:40.460Z,17.17
2023-01-26T11:53:37.056Z,15.40
2023-01-26T11:56:18.512Z,15.98
2023-01-26T11:58:55.885Z,15.45
2023-01-26T12:01:34.568Z,16.10
2023-01-26T12:04:05.499Z,16.85
2023-01-26T12:06:41.055Z,17.50
2023-01-26T12:09:20.537Z,16.05
2023-01-26T12:12:01.739Z,15.23
2023-01-26T12:14:39.079Z,16.60
2023-01-26T12:17:35.288Z,16.50
2023-01-26T12:20:24.536Z,15.18
2023-01-26T12:23:00.945Z,14.38
2023-01-26T12:25:37.321Z,12.63
2023-01-26T12:28:18.256Z,12.10
2023-01-26T12:30:58.564Z,12.27
2023-01-26T12:33:33.896Z,12.65
2023-01-26T12:36:20.607Z,12.88
2023-01-26T12:39:12.552Z,12.65
2023-01-26T12:42:11.668Z,14.00
2023-01-26T12:44:44.506Z,12.15
2023-01-26T12:47:20.971Z,11.20
2023-01-26T12:50:01.096Z,10.15
2023-01-26T12:52:41.333Z,10.52
2023-01-26T12:55:19.207Z,10.32
2023-01-26T12:57:55.098Z,11.13
2023-01-26T13:00:29.766Z,10.50
2023-01-26T13:03:03.492Z,9.95
2023-01-26T13:05:38.598Z,10.00
2023-01-26T13:08:41.193Z,11.00
2023-01-26T13:11:45.487Z,11.13
2023-01-26T13:14:33.350Z,10.63
2023-01-26T13:17:34.482Z,11.70
2023-01-26T13:20:25.345Z,12.57
2023-01-26T13:22:59.288Z,13.48
2023-01-26T13:25:35.598Z,11.95
2023-01-26T13:28:15.222Z,11.60
2023-01-26T13:30:56.023Z,10.65
2023-01-26T13:33:27.780Z,13.38
2023-01-26T13:36:20.868Z,11.50
2023-01-26T13:39:02.164Z,11.00
2023-01-26T13:41:33.028Z,11.50
2023-01-26T13:44:13.395Z,10.82
2023-01-26T13:46:49.834Z,10.88
2023-01-26T13:49:39.774Z,11.60
2023-01-26T13:52:21.287Z,10.10
2023-01-26T13:54:57.765Z,11.15
2023-01-26T13:57:30.695Z,10.25
2023-01-26T14:00:06.252Z,10.70
2023-01-26T14:02:41.558Z,12.73
2023-01-26T14:05:25.035Z,11.82
2023-01-26T14:07:55.797Z,10.90
2023-01-26T14:10:29.739Z,10.43
2023-01-26T14:13:04.080Z,15.80
2023-01-26T14:15:37.381Z,13.75
2023-01-26T14:18:09.060Z,13.05
2023-01-26T14:20:42.020Z,12.93
2023-01-26T14:23:18.551Z,14.45
2023-01-26T14:26:01.073Z,14.32
2023-01-26T14:28:36.285Z,15.07
2023-01-26T14:31:12.576Z,16.27
2023-01-26T14:33:46.177Z,15.65
2023-01-26T14:36:18.664Z,14.82
2023-01-26T14:38:51.660Z,15.97
2023-01-26T14:41:28.613Z,14.95
2023-01-26T14:44:06.049Z,16.20
2023-01-26T14:46:47.576Z,15.02
2023-01-26T14:49:22.990Z,15.27
2023-01-26T14:52:00.903Z,15.68
2023-01-26T14:54:33.820Z,16.15
2023-01-26T14:57:12.385Z,14.57
2023-01-26T14:59:52.239Z,19.02
2023-01-26T15:02:25.098Z,15.13
2023-01-26T15:04:59.239Z,14.57
2023-01-26T15:07:39.318Z,14.77
2023-01-26T15:10:30.125Z,15.33
2023-01-26T15:13:10.171Z,15.45
2023-01-26T15:15:42.918Z,15.95
2023-01-26T15:18:22.223Z,16.20
2023-01-26T15:21:00.702Z,14.88
2023-01-26T15:23:44.052Z,16.50
2023-01-26T15:26:19.811Z,14.83
2023-01-26T15:28:58.462Z,16.60
2023-01-26T15:31:33.514Z,16.63
2023-01-26T15:34:04.776Z,16.00
2023-01-26T15:36:49.467Z,15.70
2023-01-26T15:39:21.821Z,15.30
2023-01-26T15:42:15.008Z,16.40
2023-01-26T15:44:48.509Z,17.17
2023-01-26T15:47:19.635Z,18.57
2023-01-26T15:49:50.548Z,17.70
2023-01-26T15:52:25.620Z,16.87
2023-01-26T15:54:59.081Z,17.80
2023-01-26T15:57:31.655Z,16.07
2023-01-26T16:00:07.680Z,20.27
2023-01-26T16:02:39.770Z,25.60
2023-01-26T16:05:19.110Z,21.20
2023-01-26T16:07:53.188Z,21.02
2023-01-26T16:10:23.904Z,22.30
2023-01-26T16:13:02.734Z,22.43
2023-01-26T16:15:43.962Z,23.30
2023-01-26T16:18:15.476Z,22.40
2023-01-26T16:20:47.588Z,23.83
2023-01-26T16:23:22.480Z,23.50
2023-01-26T16:25:53.674Z,22.37
2023-01-26T16:28:24.959Z,21.23
2023-01-26T16:31:02.136Z,21.87
2023-01-26T16:33:33.422Z,22.50
2023-01-26T16:36:04.152Z,22.83
2023-01-26T16:38:34.952Z,21.37
2023-01-26T16:41:05.898Z,22.20
2023-01-26T16:43:36.977Z,25.70
2023-01-26T16:46:10.608Z,23.60
2023-01-26T16:48:45.236Z,24.33
2023-01-26T16:51:22.292Z,23.73
2023-01-26T16:53:56.135Z,24.20
2023-01-26T16:56:28.704Z,23.83
2023-01-26T16:58:59.494Z,23.80
2023-01-26T17:01:37.861Z,24.00
2023-01-26T17:04:08.730Z,23.50
2023-01-26T17:06:42.261Z,23.30
2023-01-26T17:09:13.093Z,24.60
2023-01-26T17:11:43.915Z,27.77
2023-01-26T17:14:15.310Z,26.83
2023-01-26T17:16:49.162Z,28.80
2023-01-26T17:19:22.389Z,28.47
2023-01-26T17:21:55.437Z,27.57
2023-01-26T17:24:26.393Z,24.10
2023-01-26T17:26:57.394Z,26.03
2023-01-26T17:29:28.132Z,25.27
2023-01-26T17:32:02.187Z,26.20
2023-01-26T17:34:36.974Z,26.97
2023-01-26T17:37:07.825Z,24.77
2023-01-26T17:39:38.767Z,27.30
2023-01-26T17:42:09.531Z,28.17
2023-01-26T17:44:40.356Z,27.40
2023-01-26T17:47:14.394Z,27.90
2023-01-26T17:49:45.220Z,29.00
2023-01-26T17:52:19.195Z,29.97
2023-01-26T17:54:52.030Z,30.73
2023-01-26T17:57:23.181Z,27.43
2023-01-26T17:59:53.982Z,30.60
2023-01-26T18:02:30.378Z,27.80
2023-01-26T18:05:01.116Z,30.87
2023-01-26T18:07:34.697Z,27.77
2023-01-26T18:10:05.605Z,29.13
2023-01-26T18:12:37.720Z,30.77
2023-01-26T18:15:09.864Z,31.63
2023-01-26T18:17:43.450Z,30.17
2023-01-26T18:20:17.652Z,30.77
2023-01-26T18:22:48.453Z,29.17
2023-01-26T18:25:21.540Z,30.50
2023-01-26T18:27:52.405Z,28.33
2023-01-26T18:30:23.462Z,26.87
2023-01-26T18:32:56.864Z,29.70
2023-01-26T18:35:27.932Z,27.73
2023-01-26T18:37:58.631Z,27.80
2023-01-26T18:40:30.676Z,29.77
2023-01-26T18:43:01.460Z,29.57
2023-01-26T18:45:32.203Z,27.73
2023-01-26T18:48:05.557Z,26.80
2023-01-26T18:50:38.354Z,29.50
2023-01-26T18:53:09.214Z,30.10
2023-01-26T18:55:41.779Z,32.37
2023-01-26T18:58:12.460Z,33.07
2023-01-26T19:00:46.362Z,30.87
2023-01-26T19:03:21.814Z,32.33
2023-01-26T19:05:52.637Z,31.30
2023-01-26T19:08:25.479Z,32.03
2023-01-26T19:10:56.220Z,33.90
2023-01-26T19:13:27.384Z,32.33
2023-01-26T19:15:58.135Z,32.10
2023-01-26T19:18:31.640Z,29.73
2023-01-26T19:21:04.456Z,31.13
2023-01-26T19:23:40.063Z,33.60
2023-01-26T19:26:14.713Z,35.17
2023-01-26T19:28:45.804Z,34.67
2023-01-26T19:31:19.452Z,33.47
2023-01-26T19:36:49.558Z,34.00
2023-01-26T19:39:22.291Z,31.77
2023-01-26T19:41:53.213Z,31.40
2023-01-26T19:44:29.400Z,31.40
2023-01-26T19:47:10.988Z,33.90
2023-01-26T19:49:44.503Z,28.90
2023-01-26T19:52:15.221Z,31.20
2023-01-26T19:54:45.922Z,34.70
2023-01-26T19:57:19.894Z,30.73
2023-01-26T19:59:52.285Z,30.03
2023-01-26T20:02:23.040Z,36.30
2023-01-26T20:04:56.457Z,35.23
2023-01-26T20:07:27.248Z,36.10
2023-01-26T20:09:58.324Z,36.00
2023-01-26T20:12:29.131Z,34.63
2023-01-26T20:15:02.097Z,32.53
2023-01-26T20:17:32.985Z,31.77
2023-01-26T20:20:07.201Z,32.60
2023-01-26T20:22:38.030Z,31.63
2023-01-26T20:25:15.182Z,31.23
2023-01-26T20:27:45.894Z,30.77
2023-01-26T20:30:17.453Z,32.00
2023-01-26T20:32:48.186Z,31.40
2023-01-26T20:35:21.879Z,27.97
2023-01-26T20:37:52.689Z,33.40
2023-01-26T20:40:23.983Z,34.60
2023-01-26T20:42:54.826Z,30.97
2023-01-26T20:45:25.586Z,32.57
2023-01-26T20:47:56.577Z,33.30
2023-01-26T20:50:30.066Z,29.80
2023-01-26T20:53:03.590Z,29.60
2023-01-26T20:55:37.359Z,32.57
2023-01-26T20:58:11.419Z,28.67
2023-01-26T21:00:42.176Z,29.83
2023-01-26T21:03:12.970Z,28.60
2023-01-26T21:05:48.858Z,29.20
2023-01-26T21:08:19.575Z,29.93
2023-01-26T21:10:50.376Z,32.00
2023-01-26T21:13:21.068Z,33.07
2023-01-26T21:15:53.238Z,30.27
2023-01-26T21:18:24.573Z,27.60
2023-01-26T21:21:04.234Z,31.30
2023-01-26T21:23:36.646Z,27.27
2023-01-26T21:26:09.514Z,27.97
2023-01-26T21:28:40.351Z,30.60
2023-01-26T21:31:15.879Z,31.40
2023-01-26T21:33:48.301Z,28.60
2023-01-26T21:36:23.434Z,27.90
2023-01-26T21:38:55.715Z,27.00
2023-01-26T21:41:40.889Z,28.00
2023-01-26T21:44:14.214Z,27.07
2023-01-26T21:46:47.299Z,25.00
2023-01-26T21:49:18.941Z,24.43
2023-01-26T21:52:05.170Z,24.20
2023-01-26T21:54:36.686Z,22.97
2023-01-26T21:57:30.366Z,21.60
2023-01-26T22:00:00.410Z,21.10
2023-01-26T22:02:31.274Z,22.00
2023-01-26T22:05:05.187Z,19.87
2023-01-26T22:07:38.659Z,19.97
2023-01-26T22:10:14.457Z,19.97
2023-01-26T22:12:45.407Z,19.07
2023-01-26T22:15:16.523Z,17.87
2023-01-26T22:17:47.223Z,18.43
2023-01-26T22:20:36.049Z,17.40
2023-01-26T22:23:09.591Z,15.53
2023-01-26T22:25:40.862Z,17.00
2023-01-26T22:28:11.642Z,14.80
2023-01-26T22:30:45.364Z,15.97
2023-01-26T22:33:16.264Z,15.67
2023-01-26T22:35:46.919Z,15.83
2023-01-26T22:38:20.653Z,15.07
2023-01-26T22:40:51.398Z,14.10
2023-01-26T22:43:22.483Z,13.07
2023-01-26T22:45:53.360Z,10.90
2023-01-26T22:48:24.488Z,9.80
2023-01-26T22:50:55.217Z,9.77
2023-01-26T22:53:28.730Z,10.87
2023-01-26T22:55:59.690Z,8.20
2023-01-26T22:58:33.115Z,7.73
2023-01-26T23:01:09.294Z,8.00
2023-01-26T23:03:40.915Z,8.63
2023-01-26T23:06:16.898Z,8.30
2023-01-26T23:08:53.500Z,7.73
2023-01-26T23:11:26.433Z,8.83
2023-01-26T23:14:00.918Z,7.90
2023-01-26T23:16:32.277Z,8.53
2023-01-26T23:19:03.072Z,7.60
2023-01-26T23:21:33.965Z,7.20
2023-01-26T23:24:10.971Z,7.67
2023-01-26T23:26:41.976Z,8.47
2023-01-26T23:29:13.045Z,9.53
2023-01-26T23:31:45.132Z,9.77
2023-01-26T23:34:16.204Z,9.07
2023-01-26T23:36:47.158Z,8.40
2023-01-26T23:39:20.669Z,8.80
2023-01-26T23:41:51.502Z,10.03
2023-01-26T23:44:22.246Z,9.23
2023-01-26T23:46:56.123Z,9.17
2023-01-26T23:49:27.039Z,8.27
2023-01-26T23:51:57.858Z,8.10
2023-01-26T23:54:31.204Z,7.80
2023-01-26T23:57:01.915Z,7.67
2023-01-26T23:59:33.083Z,7.57
